Time;durP1;ratioP1;P1;durP2;ratioP2;P2;SDS_P1;SDS_P2;PMS_P1;PMS_P2;Temp;Humidity;BMP_temperature;BMP_pressure;BME280_temperature;BME280_humidity;BME280_pressure;Samples;Min_cycle;Max_cycle;Signal;HPM_P1;HPM_P2
2020/12/12 00:02:18;;;;;;;25.58;13.25;;;1.10;73.40;;;;;;5115743;28;20019;-39
2020/12/12 00:04:44;;;;;;;25.48;13.85;;;1.10;73.40;;;;;;5115623;28;20030;-38
2020/12/12 00:07:09;;;;;;;27.52;13.52;;;1.10;73.40;;;;;;5116022;28;20106;-39
2020/12/12 00:09:36;;;;;;;22.98;13.77;;;1.10;73.30;;;;;;5115909;28;20028;-38
2020/12/12 00:12:03;;;;;;;22.90;13.88;;;1.10;73.30;;;;;;5116367;28;20420;-39
2020/12/12 00:14:29;;;;;;;20.73;12.35;;;1.10;73.40;;;;;;5115836;28;20047;-39
2020/12/12 00:16:55;;;;;;;28.52;14.13;;;1.10;73.20;;;;;;5115647;28;20127;-39
2020/12/12 00:19:20;;;;;;;20.02;12.35;;;1.10;73.10;;;;;;5116021;28;20027;-40
2020/12/12 00:21:53;;;;;;;21.60;12.40;;;1.00;73.50;;;;;;5116122;28;20032;-38
2020/12/12 00:24:20;;;;;;;30.23;14.05;;;1.10;73.20;;;;;;5115649;28;20038;-39
2020/12/12 00:26:46;;;;;;;27.58;13.82;;;1.00;73.20;;;;;;5116235;28;20038;-38
2020/12/12 00:29:13;;;;;;;24.75;12.77;;;1.10;73.30;;;;;;5115980;28;20032;-39
2020/12/12 00:31:40;;;;;;;22.35;12.75;;;1.00;73.00;;;;;;5115863;28;20055;-38
2020/12/12 00:34:06;;;;;;;23.80;13.15;;;1.00;72.90;;;;;;5115770;28;20341;-39
2020/12/12 00:36:41;;;;;;;23.80;12.32;;;1.00;72.70;;;;;;5115985;28;20165;-38
2020/12/12 00:39:07;;;;;;;24.73;13.00;;;1.00;72.70;;;;;;5115515;28;20436;-39
2020/12/12 00:41:38;;;;;;;25.13;12.32;;;1.00;72.90;;;;;;5115617;28;20118;-38
2020/12/12 00:44:05;;;;;;;22.63;12.38;;;1.00;72.90;;;;;;5115241;28;20027;-39
2020/12/12 00:46:31;;;;;;;27.67;12.43;;;1.00;72.60;;;;;;5114626;28;20459;-38
2020/12/12 00:48:57;;;;;;;20.13;11.82;;;0.90;72.50;;;;;;5115096;28;20016;-40
2020/12/12 00:51:23;;;;;;;24.30;12.57;;;0.90;72.40;;;;;;5115903;28;20325;-38
2020/12/12 00:53:49;;;;;;;22.42;11.70;;;0.90;72.50;;;;;;5113584;28;20035;-40
2020/12/12 00:56:15;;;;;;;18.52;12.18;;;0.90;72.30;;;;;;5114803;28;20302;-39
2020/12/12 00:58:41;;;;;;;24.85;13.43;;;0.80;72.30;;;;;;5114438;28;20020;-40
2020/12/12 01:01:08;;;;;;;25.70;13.13;;;0.80;72.30;;;;;;5117696;28;20036;-40
2020/12/12 01:03:33;;;;;;;18.23;11.90;;;0.80;72.30;;;;;;5117810;28;20023;-39
2020/12/12 01:05:59;;;;;;;27.35;12.50;;;0.80;72.40;;;;;;5118526;28;20307;-38
2020/12/12 01:08:25;;;;;;;21.35;12.15;;;0.70;72.30;;;;;;5118542;28;20072;-39
2020/12/12 01:10:51;;;;;;;19.05;11.95;;;0.70;72.30;;;;;;5116751;28;20358;-39
2020/12/12 01:13:17;;;;;;;17.92;11.20;;;0.70;72.30;;;;;;5117303;28;20428;-39
2020/12/12 01:15:43;;;;;;;25.45;12.07;;;0.70;72.20;;;;;;5117729;28;20399;-38
2020/12/12 01:18:09;;;;;;;20.15;12.38;;;0.70;72.30;;;;;;5117268;28;20034;-39
2020/12/12 01:20:35;;;;;;;25.40;12.70;;;0.70;72.90;;;;;;5117707;28;20027;-38
2020/12/12 01:23:01;;;;;;;25.02;12.65;;;0.60;72.30;;;;;;5117512;28;20031;-39
2020/12/12 01:25:27;;;;;;;24.05;11.82;;;0.70;72.30;;;;;;5118256;28;20032;-40
2020/12/12 01:27:52;;;;;;;22.42;11.43;;;0.60;72.40;;;;;;5119176;28;20019;-40
2020/12/12 01:30:18;;;;;;;23.30;12.48;;;0.60;72.30;;;;;;5118147;28;20059;-38
2020/12/12 01:32:44;;;;;;;21.10;10.73;;;0.60;72.40;;;;;;5118743;28;20171;-39
2020/12/12 01:35:09;;;;;;;26.58;12.73;;;0.70;72.40;;;;;;5118790;28;20050;-39
2020/12/12 01:37:35;;;;;;;23.67;12.02;;;0.60;72.10;;;;;;5118688;28;20019;-40
2020/12/12 01:40:01;;;;;;;25.60;12.82;;;0.60;71.90;;;;;;5118389;28;20080;-38
2020/12/12 01:42:27;;;;;;;20.08;10.82;;;0.50;71.90;;;;;;5118289;28;20023;-40
2020/12/12 01:44:59;;;;;;;19.80;11.25;;;0.60;72.10;;;;;;5118408;28;20106;-38
2020/12/12 01:47:26;;;;;;;18.13;11.00;;;0.50;72.60;;;;;;5119136;28;20016;-39
2020/12/12 01:49:53;;;;;;;22.67;12.15;;;0.50;72.00;;;;;;5118448;28;20330;-38
2020/12/12 01:52:19;;;;;;;25.55;11.77;;;0.50;72.10;;;;;;5117017;28;20336;-39
2020/12/12 01:54:49;;;;;;;20.95;11.50;;;0.50;72.00;;;;;;5116651;27;20349;-38
2020/12/12 01:57:19;;;;;;;20.48;11.60;;;0.50;72.00;;;;;;5118231;28;20020;-38
2020/12/12 01:59:46;;;;;;;23.27;12.27;;;0.50;71.80;;;;;;5118005;28;20100;-38
2020/12/12 02:02:12;;;;;;;19.10;11.60;;;0.50;71.80;;;;;;5118164;28;20023;-38
2020/12/12 02:04:41;;;;;;;23.15;12.35;;;0.50;71.80;;;;;;5118186;28;20016;-38
2020/12/12 02:07:07;;;;;;;22.85;12.13;;;0.40;71.80;;;;;;5118199;28;20413;-39
2020/12/12 02:09:36;;;;;;;22.15;11.63;;;0.40;71.80;;;;;;5117914;28;20034;-38
2020/12/12 02:12:02;;;;;;;22.15;11.45;;;0.40;71.60;;;;;;5117391;28;20066;-39
2020/12/12 02:14:27;;;;;;;19.00;11.07;;;0.40;71.50;;;;;;5117264;28;20059;-39
2020/12/12 02:16:58;;;;;;;22.90;12.13;;;0.40;71.50;;;;;;5118507;28;20028;-40
2020/12/12 02:19:24;;;;;;;19.42;11.07;;;0.40;71.50;;;;;;5118020;28;20027;-38
2020/12/12 02:21:53;;;;;;;22.38;10.70;;;0.40;71.50;;;;;;5118201;28;20100;-39
2020/12/12 02:24:19;;;;;;;18.80;10.95;;;0.30;71.50;;;;;;5118266;28;20023;-39
2020/12/12 02:26:45;;;;;;;23.60;11.95;;;0.30;71.60;;;;;;5118213;28;20046;-38
2020/12/12 02:29:11;;;;;;;23.17;11.75;;;0.30;71.60;;;;;;5117121;28;20072;-39
2020/12/12 02:31:38;;;;;;;18.85;10.93;;;0.20;71.50;;;;;;5117687;28;20054;-40
2020/12/12 02:34:05;;;;;;;20.55;11.45;;;0.30;71.60;;;;;;5117905;28;20043;-39
2020/12/12 02:36:40;;;;;;;21.10;11.27;;;0.30;71.60;;;;;;5117635;28;20252;-39
2020/12/12 02:39:09;;;;;;;20.92;11.70;;;0.30;71.60;;;;;;5117529;28;20023;-39
2020/12/12 02:41:35;;;;;;;21.45;12.15;;;0.30;71.50;;;;;;5117414;28;20032;-38
2020/12/12 02:44:01;;;;;;;20.25;11.68;;;0.30;71.60;;;;;;5116965;28;20031;-39
2020/12/12 02:46:27;;;;;;;19.17;11.38;;;0.30;71.50;;;;;;5117782;28;20038;-38
2020/12/12 02:48:52;;;;;;;20.65;11.38;;;0.20;71.40;;;;;;5117181;27;20317;-40
2020/12/12 02:51:19;;;;;;;18.27;11.20;;;0.20;71.20;;;;;;5117548;28;20031;-38
2020/12/12 02:53:45;;;;;;;20.52;11.80;;;0.20;71.10;;;;;;5116723;28;20349;-39
2020/12/12 02:56:15;;;;;;;21.52;11.88;;;0.20;71.10;;;;;;5117474;28;20047;-39
2020/12/12 02:58:41;;;;;;;19.35;11.02;;;0.20;71.20;;;;;;5116897;28;20019;-38
2020/12/12 03:01:07;;;;;;;19.73;11.25;;;0.20;71.20;;;;;;5117216;28;20409;-39
2020/12/12 03:03:33;;;;;;;22.60;12.25;;;0.20;71.20;;;;;;5117349;28;20039;-40
2020/12/12 03:06:00;;;;;;;17.50;10.55;;;0.20;71.10;;;;;;5117132;28;20027;-38
2020/12/12 03:08:26;;;;;;;22.45;11.35;;;0.10;71.20;;;;;;5116681;28;20123;-39
2020/12/12 03:10:51;;;;;;;19.30;11.80;;;0.20;71.30;;;;;;5117255;28;20107;-39
2020/12/12 03:13:17;;;;;;;21.92;10.18;;;0.20;71.20;;;;;;5116742;28;20027;-40
2020/12/12 03:15:43;;;;;;;20.33;11.77;;;0.20;71.30;;;;;;5117196;28;20042;-38
2020/12/12 03:18:08;;;;;;;20.92;12.68;;;0.20;71.20;;;;;;5116595;28;20034;-39
2020/12/12 03:20:34;;;;;;;23.27;12.32;;;0.20;71.20;;;;;;5116430;28;20027;-38
2020/12/12 03:23:00;;;;;;;17.80;10.50;;;0.20;71.80;;;;;;5117003;28;20024;-40
2020/12/12 03:25:25;;;;;;;23.50;12.18;;;0.20;71.30;;;;;;5116954;28;20058;-38
2020/12/12 03:27:51;;;;;;;24.42;11.98;;;0.20;71.30;;;;;;5116466;28;20034;-40
2020/12/12 03:30:17;;;;;;;22.83;12.18;;;0.20;71.30;;;;;;5115508;28;20047;-38
2020/12/12 03:32:42;;;;;;;15.43;10.35;;;0.20;71.10;;;;;;5115534;28;20027;-39
2020/12/12 03:35:08;;;;;;;17.55;10.57;;;0.20;70.90;;;;;;5114269;28;20387;-38
2020/12/12 03:37:34;;;;;;;20.50;11.13;;;0.20;70.90;;;;;;5115388;28;20107;-39
2020/12/12 03:39:59;;;;;;;20.63;11.60;;;0.20;70.90;;;;;;5113446;28;20271;-38
2020/12/12 03:42:25;;;;;;;19.20;10.70;;;0.20;70.80;;;;;;5114737;28;20035;-40
2020/12/12 03:44:51;;;;;;;19.05;11.25;;;0.20;71.20;;;;;;5115563;28;20035;-38
2020/12/12 03:47:16;;;;;;;17.45;10.73;;;0.20;70.80;;;;;;5116069;28;20047;-39
2020/12/12 03:49:42;;;;;;;20.42;10.98;;;0.20;70.80;;;;;;5114851;28;20023;-38
2020/12/12 03:52:08;;;;;;;20.27;10.93;;;0.20;70.80;;;;;;5116098;28;20131;-39
2020/12/12 03:54:33;;;;;;;22.13;11.00;;;0.20;70.70;;;;;;5115817;28;20413;-39
2020/12/12 03:56:59;;;;;;;22.02;11.13;;;0.20;70.60;;;;;;5115994;28;20066;-40
2020/12/12 03:59:25;;;;;;;21.02;11.18;;;0.10;70.60;;;;;;5113137;28;20058;-40
2020/12/12 04:01:51;;;;;;;20.15;11.40;;;0.10;70.70;;;;;;5115639;28;20482;-39
2020/12/12 04:04:16;;;;;;;23.35;12.80;;;0.10;70.80;;;;;;5116017;28;20127;-40
2020/12/12 04:06:42;;;;;;;21.45;11.90;;;0.10;70.80;;;;;;5115792;28;20038;-38
2020/12/12 04:09:08;;;;;;;20.35;11.68;;;0.10;70.90;;;;;;5115724;28;20028;-39
2020/12/12 04:11:34;;;;;;;18.63;10.57;;;0.10;70.70;;;;;;5115066;28;20081;-38
2020/12/12 04:14:00;;;;;;;25.70;13.27;;;0.00;70.70;;;;;;5113737;28;20398;-40
2020/12/12 04:16:25;;;;;;;22.17;11.93;;;0.10;71.00;;;;;;5114530;28;20035;-38
2020/12/12 04:18:51;;;;;;;22.38;12.25;;;0.10;71.00;;;;;;5115469;28;20094;-39
2020/12/12 04:21:17;;;;;;;20.70;12.98;;;0.00;70.80;;;;;;5115712;28;20417;-38
2020/12/12 04:23:43;;;;;;;24.50;12.50;;;0.00;70.70;;;;;;5115987;28;20028;-40
2020/12/12 04:26:12;;;;;;;19.50;12.25;;;0.00;70.80;;;;;;5115934;28;20039;-38
2020/12/12 04:28:39;;;;;;;20.75;11.38;;;0.00;70.80;;;;;;5115539;28;20542;-38
2020/12/12 04:31:06;;;;;;;20.48;12.05;;;0.00;70.90;;;;;;5115565;28;20056;-39
2020/12/12 04:33:31;;;;;;;21.15;11.55;;;0.00;71.00;;;;;;5115854;28;20031;-39
2020/12/12 04:35:57;;;;;;;20.38;11.05;;;0.00;71.10;;;;;;5119702;28;20437;-38
2020/12/12 04:38:23;;;;;;;21.63;11.63;;;0.00;70.90;;;;;;5119886;28;20049;-40
2020/12/12 04:40:49;;;;;;;21.63;12.27;;;0.00;70.90;;;;;;5120190;28;20031;-38
2020/12/12 04:43:15;;;;;;;21.90;11.77;;;0.00;70.90;;;;;;5119257;28;20027;-38
2020/12/12 04:45:43;;;;;;;23.10;12.43;;;0.00;70.90;;;;;;5120273;28;20126;-38
2020/12/12 04:48:09;;;;;;;21.48;11.93;;;0.00;70.90;;;;;;5119994;28;20333;-38
2020/12/12 04:50:35;;;;;;;23.58;12.35;;;0.00;71.10;;;;;;5119428;28;20441;-38
2020/12/12 04:53:15;;;;;;;20.90;11.25;;;0.00;70.90;;;;;;5118373;28;20024;-39
2020/12/12 04:55:47;;;;;;;23.02;11.82;;;0.00;70.80;;;;;;5118316;28;20035;-38
2020/12/12 04:58:19;;;;;;;22.80;11.20;;;0.00;70.80;;;;;;5118840;28;20109;-38
2020/12/12 05:00:47;;;;;;;23.75;12.80;;;0.00;70.70;;;;;;5118641;28;20036;-38
2020/12/12 05:03:14;;;;;;;20.95;12.18;;;0.00;70.70;;;;;;5119177;28;20274;-39
2020/12/12 05:05:41;;;;;;;19.27;11.23;;;0.00;70.70;;;;;;5117687;28;20455;-38
2020/12/12 05:08:08;;;;;;;28.40;13.90;;;0.00;70.80;;;;;;5117363;28;20390;-39
2020/12/12 05:10:38;;;;;;;27.63;13.18;;;0.00;70.70;;;;;;5117802;28;20032;-38
2020/12/12 05:13:19;;;;;;;22.20;12.05;;;0.00;70.80;;;;;;5117446;28;20421;-39
2020/12/12 05:15:49;;;;;;;24.23;12.73;;;0.00;70.60;;;;;;5117601;28;20455;-38
2020/12/12 05:18:15;;;;;;;23.30;12.73;;;-0.10;70.50;;;;;;5117440;28;20368;-38
2020/12/12 05:20:42;;;;;;;20.90;11.15;;;-0.10;70.60;;;;;;5117151;28;20031;-38
2020/12/12 05:23:19;;;;;;;21.27;11.52;;;-0.10;70.60;;;;;;5117241;28;20069;-39
2020/12/12 05:25:45;;;;;;;18.13;10.75;;;-0.10;70.80;;;;;;5117480;27;20024;-38
2020/12/12 05:28:13;;;;;;;22.67;12.07;;;-0.10;70.70;;;;;;5117245;28;20061;-39
2020/12/12 05:30:44;;;;;;;19.48;11.43;;;-0.10;70.80;;;;;;5117500;27;20059;-38
2020/12/12 05:33:12;;;;;;;21.35;12.27;;;-0.10;70.80;;;;;;5118065;27;20028;-38
2020/12/12 05:35:38;;;;;;;24.20;12.10;;;-0.10;70.80;;;;;;5118807;27;20040;-38
2020/12/12 05:38:06;;;;;;;27.48;13.65;;;-0.10;70.80;;;;;;5118950;28;20028;-39
2020/12/12 05:40:35;;;;;;;23.10;11.63;;;-0.10;70.90;;;;;;5112200;28;20059;-38
2020/12/12 05:43:05;;;;;;;22.13;11.15;;;-0.10;71.00;;;;;;5104549;28;20073;-38
2020/12/12 05:45:32;;;;;;;24.30;11.80;;;-0.10;71.10;;;;;;5097239;28;20066;-38
2020/12/12 05:47:57;;;;;;;23.13;11.48;;;-0.10;71.10;;;;;;5098044;28;20020;-39
2020/12/12 05:50:26;;;;;;;22.73;12.27;;;0.00;71.10;;;;;;5097411;28;20405;-38
2020/12/12 05:52:56;;;;;;;25.23;12.30;;;0.00;70.90;;;;;;5096706;28;20490;-38
2020/12/12 05:55:30;;;;;;;26.73;12.93;;;0.00;70.80;;;;;;5106964;28;20046;-38
2020/12/12 05:57:57;;;;;;;30.90;14.52;;;0.00;70.80;;;;;;5117502;28;20015;-39
2020/12/12 06:00:28;;;;;;;28.35;13.20;;;0.00;70.80;;;;;;5114272;28;20036;-38
2020/12/12 06:03:03;;;;;;;23.10;11.82;;;0.00;71.00;;;;;;5114602;28;20126;-38
2020/12/12 06:05:30;;;;;;;21.23;11.77;;;0.00;71.00;;;;;;5113969;28;20051;-38
2020/12/12 06:08:01;;;;;;;29.05;12.02;;;0.00;71.20;;;;;;5103573;28;20015;-38
2020/12/12 06:10:30;;;;;;;30.80;17.02;;;0.00;71.10;;;;;;5115657;28;20031;-38
2020/12/12 06:13:05;;;;;;;33.53;17.00;;;0.10;71.10;;;;;;5116890;28;20536;-39
2020/12/12 06:15:40;;;;;;;24.20;13.88;;;0.00;70.80;;;;;;5117097;28;20157;-39
2020/12/12 06:18:20;;;;;;;30.90;16.30;;;0.00;70.60;;;;;;5116523;28;20012;-39
2020/12/12 06:20:50;;;;;;;28.83;14.80;;;0.00;70.70;;;;;;5116282;28;20032;-38
2020/12/12 06:23:17;;;;;;;27.40;12.80;;;0.00;70.70;;;;;;5118198;28;20019;-38
2020/12/12 06:25:42;;;;;;;51.67;23.10;;;0.00;70.60;;;;;;5117375;28;20283;-38
2020/12/12 06:28:14;;;;;;;33.22;16.42;;;0.00;70.60;;;;;;5116235;28;20033;-40
2020/12/12 06:30:42;;;;;;;25.08;14.55;;;0.00;70.70;;;;;;5116168;28;20054;-38
2020/12/12 06:33:08;;;;;;;34.45;16.63;;;0.10;70.70;;;;;;5115867;28;20031;-39
2020/12/12 06:35:35;;;;;;;27.85;14.13;;;0.00;70.70;;;;;;5117934;28;20044;-38
2020/12/12 06:38:20;;;;;;;30.83;14.60;;;0.10;70.50;;;;;;5116664;28;20035;-39
2020/12/12 06:40:46;;;;;;;27.42;14.60;;;0.00;70.40;;;;;;5115894;28;20085;-38
2020/12/12 06:43:34;;;;;;;29.55;13.82;;;0.10;70.50;;;;;;5115717;28;20012;-39
2020/12/12 06:46:05;;;;;;;28.85;13.07;;;0.10;70.60;;;;;;5116440;28;20072;-39
2020/12/12 06:48:32;;;;;;;25.52;13.07;;;0.10;70.60;;;;;;5115275;28;20084;-39
2020/12/12 06:51:01;;;;;;;26.30;11.70;;;0.10;70.60;;;;;;5114408;28;20031;-38
2020/12/12 06:53:28;;;;;;;22.45;11.95;;;0.10;70.70;;;;;;5115333;28;20062;-42
2020/12/12 06:56:15;;;;;;;26.73;12.85;;;0.10;70.60;;;;;;5114634;28;20039;-43
2020/12/12 06:58:44;;;;;;;23.50;11.90;;;0.20;70.60;;;;;;5113371;28;20070;-41
2020/12/12 07:01:33;;;;;;;25.90;12.93;;;0.10;70.40;;;;;;5113358;28;20027;-41
2020/12/12 07:04:00;;;;;;;25.30;13.52;;;0.10;70.50;;;;;;5113145;28;20020;-41
2020/12/12 07:06:28;;;;;;;24.58;12.38;;;0.10;70.60;;;;;;5113862;28;20031;-41
2020/12/12 07:09:02;;;;;;;21.40;12.20;;;0.10;70.70;;;;;;5112600;28;20027;-38
2020/12/12 07:11:28;;;;;;;28.77;15.55;;;0.10;70.70;;;;;;5117031;28;20035;-42
2020/12/12 07:13:55;;;;;;;21.02;10.45;;;0.20;70.80;;;;;;5115039;28;20046;-39
2020/12/12 07:16:21;;;;;;;25.27;12.98;;;0.20;70.60;;;;;;5115683;28;20031;-41
2020/12/12 07:18:49;;;;;;;29.15;12.80;;;0.20;70.60;;;;;;5116627;28;20391;-39
2020/12/12 07:21:15;;;;;;;24.67;12.65;;;0.20;70.60;;;;;;5115510;28;20114;-39
2020/12/12 07:23:42;;;;;;;23.77;11.75;;;0.20;70.50;;;;;;5117287;28;20100;-42
2020/12/12 07:26:08;;;;;;;25.55;12.95;;;0.20;70.60;;;;;;5113903;28;20023;-38
2020/12/12 07:28:35;;;;;;;28.55;12.88;;;0.30;70.60;;;;;;5113448;28;20429;-41
2020/12/12 07:31:01;;;;;;;31.70;12.55;;;0.20;70.50;;;;;;5093920;28;20415;-42
2020/12/12 07:33:28;;;;;;;28.30;12.82;;;0.30;70.40;;;;;;5113598;28;20035;-40
2020/12/12 07:35:57;;;;;;;30.00;12.27;;;0.30;70.50;;;;;;5113363;28;20058;-42
2020/12/12 07:38:24;;;;;;;23.15;12.18;;;0.30;70.60;;;;;;5116324;28;20016;-39
2020/12/12 07:40:50;;;;;;;32.25;13.38;;;0.30;70.60;;;;;;5115014;28;20126;-39
2020/12/12 07:43:16;;;;;;;24.33;12.55;;;0.30;70.60;;;;;;5114441;28;20023;-39
2020/12/12 07:48:23;;;;;;;29.55;14.95;;;0.40;70.90;;;;;;5114734;28;20325;-39
2020/12/12 07:50:48;;;;;;;25.85;12.35;;;0.40;70.70;;;;;;5103411;28;20040;-38
2020/12/12 07:53:16;;;;;;;28.30;12.10;;;0.50;70.70;;;;;;5095399;28;20027;-40
2020/12/12 07:55:52;;;;;;;26.30;13.68;;;0.50;70.50;;;;;;5095278;28;20429;-38
2020/12/12 07:58:28;;;;;;;29.25;13.05;;;0.50;70.40;;;;;;5114021;28;20016;-42
2020/12/12 08:01:05;;;;;;;27.55;13.50;;;0.50;70.50;;;;;;5114975;28;20043;-42
2020/12/12 08:03:32;;;;;;;27.60;12.68;;;0.50;70.40;;;;;;5115590;28;20024;-39
2020/12/12 08:06:08;;;;;;;27.55;12.85;;;0.50;70.30;;;;;;5116571;28;20387;-39
2020/12/12 08:08:35;;;;;;;25.60;13.30;;;0.60;70.20;;;;;;5115410;28;20015;-42
2020/12/12 08:11:03;;;;;;;31.17;13.55;;;0.50;70.10;;;;;;5116538;28;20048;-42
2020/12/12 08:13:30;;;;;;;29.23;13.55;;;0.50;70.10;;;;;;5111382;28;20433;-42
2020/12/12 08:16:20;;;;;;;28.60;14.05;;;0.50;70.20;;;;;;5106475;28;20078;-42
2020/12/12 08:18:46;;;;;;;33.87;15.17;;;0.50;70.40;;;;;;5095361;28;20322;-39
2020/12/12 08:21:16;;;;;;;34.03;16.73;;;0.50;70.30;;;;;;5113816;28;20286;-43
2020/12/12 08:23:44;;;;;;;25.75;14.18;;;0.50;70.30;;;;;;5114011;28;20114;-42
2020/12/12 08:26:13;;;;;;;25.95;12.85;;;0.50;70.20;;;;;;5114545;28;20060;-39
2020/12/12 08:28:39;;;;;;;28.92;13.20;;;0.50;70.10;;;;;;5115175;28;20019;-38
2020/12/12 08:31:13;;;;;;;25.08;12.48;;;0.50;70.20;;;;;;5115104;28;20415;-42
2020/12/12 08:33:40;;;;;;;24.88;12.40;;;0.50;70.20;;;;;;5115505;28;20426;-42
2020/12/12 08:36:17;;;;;;;34.78;16.92;;;0.50;70.30;;;;;;5115876;28;20034;-42
2020/12/12 08:38:54;;;;;;;68.53;37.85;;;0.50;70.30;;;;;;5115597;28;20023;-42
2020/12/12 08:41:21;;;;;;;39.17;21.15;;;0.50;70.40;;;;;;5115289;28;20031;-42
2020/12/12 08:43:48;;;;;;;56.15;28.73;;;0.50;70.70;;;;;;5115227;28;20028;-42
2020/12/12 08:46:18;;;;;;;53.70;26.60;;;0.60;70.70;;;;;;5114754;28;20035;-39
2020/12/12 08:48:44;;;;;;;56.03;25.88;;;0.50;70.50;;;;;;5096463;28;20039;-41
2020/12/12 08:51:12;;;;;;;38.00;19.45;;;0.60;70.60;;;;;;5115057;28;20122;-42
2020/12/12 08:53:42;;;;;;;48.45;25.30;;;0.60;70.60;;;;;;5112778;28;20115;-39
2020/12/12 08:56:14;;;;;;;68.88;28.60;;;0.60;70.50;;;;;;5112639;28;20027;-39
2020/12/12 08:59:03;;;;;;;47.10;23.08;;;0.60;70.40;;;;;;5104984;28;20032;-41
2020/12/12 09:01:33;;;;;;;37.70;19.33;;;0.60;70.50;;;;;;5108753;28;20150;-38
2020/12/12 09:04:09;;;;;;;31.73;15.57;;;0.60;70.40;;;;;;5114301;28;20043;-38
2020/12/12 09:06:42;;;;;;;47.35;24.50;;;0.60;70.30;;;;;;5113604;28;20032;-41
2020/12/12 09:09:20;;;;;;;41.30;19.95;;;0.70;70.40;;;;;;5112590;28;20026;-41
2020/12/12 09:12:08;;;;;;;35.10;17.63;;;0.70;70.20;;;;;;5114126;28;20337;-42
2020/12/12 09:14:36;;;;;;;33.35;16.05;;;0.60;70.10;;;;;;5114123;28;20180;-39
2020/12/12 09:17:07;;;;;;;30.02;14.35;;;0.70;70.00;;;;;;5114632;28;20563;-42
2020/12/12 09:19:33;;;;;;;34.97;17.55;;;0.60;70.10;;;;;;5107672;28;20076;-42
2020/12/12 09:22:00;;;;;;;36.50;17.05;;;0.60;70.30;;;;;;5098652;28;20024;-42
2020/12/12 09:24:26;;;;;;;30.77;15.77;;;0.60;70.10;;;;;;5098936;28;20031;-43
2020/12/12 09:26:55;;;;;;;31.00;15.45;;;0.70;70.10;;;;;;5099045;28;20032;-42
2020/12/12 09:29:22;;;;;;;29.85;14.40;;;0.70;70.00;;;;;;5098459;28;20347;-43
2020/12/12 09:31:51;;;;;;;31.17;14.68;;;0.70;70.00;;;;;;5097008;28;20059;-43
2020/12/12 09:34:18;;;;;;;27.45;13.82;;;0.70;69.80;;;;;;5098002;28;20147;-43
2020/12/12 09:36:47;;;;;;;35.70;15.70;;;0.70;70.00;;;;;;5107060;28;20027;-42
2020/12/12 09:39:14;;;;;;;28.65;14.65;;;0.70;70.10;;;;;;5109137;28;20030;-40
2020/12/12 09:41:40;;;;;;;30.45;16.45;;;0.70;70.10;;;;;;5117733;28;20563;-39
2020/12/12 09:44:06;;;;;;;27.17;15.35;;;0.70;69.90;;;;;;5115167;28;20565;-43
2020/12/12 09:46:33;;;;;;;32.42;15.90;;;0.70;69.80;;;;;;5113354;28;20341;-40
2020/12/12 09:48:59;;;;;;;26.98;15.10;;;0.70;69.90;;;;;;5116597;28;20026;-43
2020/12/12 09:51:25;;;;;;;39.95;19.33;;;0.70;69.80;;;;;;5116021;28;20023;-43
2020/12/12 09:53:53;;;;;;;34.28;17.30;;;0.70;69.90;;;;;;5114854;28;20080;-39
2020/12/12 09:56:20;;;;;;;30.50;16.73;;;0.70;70.00;;;;;;5112565;28;20023;-39
2020/12/12 09:58:46;;;;;;;31.48;16.40;;;0.80;69.90;;;;;;5114152;28;20027;-40
2020/12/12 10:01:13;;;;;;;34.88;17.17;;;0.70;70.00;;;;;;5116962;28;20038;-40
2020/12/12 10:03:40;;;;;;;38.22;17.00;;;0.70;69.90;;;;;;5114916;28;20031;-39
2020/12/12 10:06:07;;;;;;;55.05;26.42;;;0.70;69.90;;;;;;5115987;28;20463;-41
2020/12/12 10:08:33;;;;;;;33.55;16.80;;;0.80;70.10;;;;;;5117100;28;20578;-38
2020/12/12 10:10:59;;;;;;;40.53;16.65;;;0.80;69.90;;;;;;5118099;28;20023;-37
2020/12/12 10:13:25;;;;;;;30.08;16.48;;;0.80;69.70;;;;;;5115970;28;20433;-39
2020/12/12 10:15:50;;;;;;;30.10;14.52;;;0.80;69.80;;;;;;5118098;28;20045;-38
2020/12/12 10:18:20;;;;;;;35.58;15.05;;;0.80;69.70;;;;;;5117436;27;20088;-38
2020/12/12 10:20:46;;;;;;;25.63;14.45;;;0.80;69.60;;;;;;5116194;28;20035;-39
2020/12/12 10:23:12;;;;;;;28.05;14.52;;;0.80;69.60;;;;;;5114367;28;20047;-39
2020/12/12 10:25:37;;;;;;;35.50;16.52;;;0.80;69.60;;;;;;5116295;28;20533;-39
2020/12/12 10:28:03;;;;;;;27.63;15.15;;;0.80;69.50;;;;;;5117087;28;20072;-41
2020/12/12 10:30:32;;;;;;;38.45;15.35;;;0.80;69.50;;;;;;5116647;28;20135;-41
2020/12/12 10:33:01;;;;;;;32.03;16.63;;;0.80;69.40;;;;;;5115696;28;20015;-41
2020/12/12 10:35:30;;;;;;;34.05;16.40;;;0.70;69.50;;;;;;5117931;28;20093;-41
2020/12/12 10:37:58;;;;;;;33.17;15.95;;;0.70;69.70;;;;;;5117919;28;20076;-39
2020/12/12 10:42:57;;;;;;;31.25;14.70;;;0.70;69.80;;;;;;5117060;28;20023;-38
2020/12/12 10:45:24;;;;;;;35.92;16.13;;;0.70;69.90;;;;;;5116453;28;20035;-38
2020/12/12 10:47:51;;;;;;;29.45;14.20;;;0.70;69.90;;;;;;5113478;28;20462;-38
2020/12/12 10:50:18;;;;;;;29.13;14.35;;;0.70;69.80;;;;;;5111822;28;20035;-38
2020/12/12 10:52:45;;;;;;;31.83;13.90;;;0.70;69.90;;;;;;5109070;28;20026;-44
2020/12/12 10:55:11;;;;;;;32.65;14.30;;;0.70;70.10;;;;;;5114735;28;20058;-43
2020/12/12 10:57:37;;;;;;;33.70;14.82;;;0.80;70.00;;;;;;5115114;28;20625;-43
2020/12/12 11:00:05;;;;;;;34.55;14.70;;;0.70;69.80;;;;;;5111741;28;20114;-38
2020/12/12 11:02:33;;;;;;;31.17;15.45;;;0.70;69.80;;;;;;5111405;28;20038;-38
2020/12/12 11:05:00;;;;;;;40.85;19.00;;;0.70;69.80;;;;;;5117456;28;20038;-39
2020/12/12 11:07:25;;;;;;;65.20;32.28;;;0.70;70.00;;;;;;5114716;28;20032;-40
2020/12/12 11:09:51;;;;;;;57.63;18.75;;;0.70;70.00;;;;;;5115755;28;20038;-42
2020/12/12 11:12:17;;;;;;;37.05;19.95;;;0.60;69.80;;;;;;5114633;28;20064;-44
2020/12/12 11:14:48;;;;;;;32.50;16.95;;;0.60;69.90;;;;;;5112816;28;20399;-43
2020/12/12 11:17:14;;;;;;;35.08;16.60;;;0.60;70.10;;;;;;5112964;28;20085;-42
2020/12/12 11:19:41;;;;;;;32.80;15.68;;;0.60;70.30;;;;;;5114631;28;20106;-42
2020/12/12 11:22:06;;;;;;;35.78;16.17;;;0.60;70.30;;;;;;5113224;28;20494;-42
2020/12/12 11:24:32;;;;;;;28.13;13.15;;;0.60;70.40;;;;;;5114219;28;20035;-41
2020/12/12 11:26:58;;;;;;;34.33;17.13;;;0.60;70.40;;;;;;5115412;28;20073;-41
2020/12/12 11:29:24;;;;;;;44.85;16.88;;;0.60;70.40;;;;;;5113582;28;20429;-41
2020/12/12 11:31:52;;;;;;;40.58;18.38;;;0.60;70.30;;;;;;5115853;28;20067;-41
2020/12/12 11:34:31;;;;;;;37.88;17.95;;;0.60;70.50;;;;;;5114452;28;20452;-41
2020/12/12 11:40:01;;;;;;;34.35;17.05;;;0.60;70.20;;;;;;5100044;28;20077;-38
2020/12/12 11:47:37;;;;;;;36.80;18.85;;;0.60;70.40;;;;;;5114870;28;20042;-41
2020/12/12 11:50:03;;;;;;;40.88;17.20;;;0.60;70.80;;;;;;5114292;28;20039;-41
2020/12/12 11:52:29;;;;;;;36.17;16.85;;;0.60;70.50;;;;;;5114186;28;20484;-41
2020/12/12 11:54:55;;;;;;;29.92;15.20;;;0.60;70.70;;;;;;5114398;28;20134;-41
2020/12/12 11:57:21;;;;;;;34.70;15.73;;;0.60;70.70;;;;;;5115446;28;20019;-41
2020/12/12 11:59:47;;;;;;;38.35;17.10;;;0.60;70.80;;;;;;5111827;28;20059;-41
2020/12/12 12:02:13;;;;;;;35.28;16.85;;;0.60;70.70;;;;;;5111732;28;20077;-40
2020/12/12 12:04:39;;;;;;;36.75;16.85;;;0.50;70.80;;;;;;5113713;28;20030;-38
2020/12/12 12:07:07;;;;;;;38.55;17.40;;;0.50;70.90;;;;;;5112614;28;20479;-40
2020/12/12 12:09:39;;;;;;;39.58;18.27;;;0.50;71.00;;;;;;5112045;28;20571;-38
2020/12/12 12:12:05;;;;;;;49.05;22.52;;;0.50;71.80;;;;;;5113194;28;20031;-39
2020/12/12 12:14:30;;;;;;;58.50;30.80;;;0.50;71.10;;;;;;5112941;28;20031;-40
2020/12/12 12:16:56;;;;;;;46.15;25.83;;;0.50;71.40;;;;;;5114819;28;20015;-44
2020/12/12 12:19:22;;;;;;;38.72;20.13;;;0.50;71.30;;;;;;5115685;28;20060;-43
2020/12/12 12:21:50;;;;;;;41.67;21.63;;;0.50;71.50;;;;;;5115177;28;20035;-41
2020/12/12 12:24:17;;;;;;;41.53;17.33;;;0.50;71.60;;;;;;5106604;28;20392;-40
2020/12/12 12:26:44;;;;;;;36.70;19.05;;;0.50;71.60;;;;;;5114878;28;20072;-38
2020/12/12 12:29:12;;;;;;;38.22;16.77;;;0.50;71.70;;;;;;5115057;28;20102;-41
2020/12/12 12:31:42;;;;;;;46.38;20.45;;;0.50;71.80;;;;;;5113225;28;20055;-41
2020/12/12 12:34:08;;;;;;;48.55;26.13;;;0.50;71.90;;;;;;5113292;28;20118;-39
2020/12/12 12:36:38;;;;;;;83.93;43.50;;;0.50;71.80;;;;;;5113607;28;20031;-39
2020/12/12 12:39:05;;;;;;;55.30;27.00;;;0.50;71.80;;;;;;5112854;28;20081;-43
2020/12/12 12:41:31;;;;;;;57.20;27.25;;;0.50;72.00;;;;;;5114038;28;20074;-43
2020/12/12 12:44:04;;;;;;;51.63;24.15;;;0.50;72.10;;;;;;5114702;28;20020;-42
2020/12/12 12:46:33;;;;;;;41.58;19.85;;;0.50;72.00;;;;;;5115763;28;20035;-42
2020/12/12 12:48:59;;;;;;;48.22;21.85;;;0.50;72.10;;;;;;5115318;28;20038;-39
2020/12/12 12:51:25;;;;;;;43.72;21.10;;;0.50;72.20;;;;;;5115348;28;20024;-43
2020/12/12 12:53:53;;;;;;;48.88;21.33;;;0.50;72.30;;;;;;5115078;28;20042;-44